createdAt,value
2018-07-25T00:00:47.844Z,16.70
2018-07-25T00:03:16.297Z,16.80
2018-07-25T00:08:12.936Z,16.80
2018-07-25T00:10:46.764Z,16.60
2018-07-25T00:13:15.234Z,16.60
2018-07-25T00:18:11.978Z,16.80
2018-07-25T00:20:40.445Z,16.80
2018-07-25T00:23:09.111Z,16.90
2018-07-25T00:28:05.995Z,16.50
2018-07-25T00:30:34.569Z,17.00
2018-07-25T00:35:31.417Z,16.40
2018-07-25T00:37:59.950Z,16.50
2018-07-25T00:40:28.601Z,16.50
2018-07-25T00:42:57.354Z,16.70
2018-07-25T00:50:22.367Z,16.30
2018-07-25T00:52:50.872Z,16.70
2018-07-25T00:55:19.643Z,16.30
2018-07-25T01:00:18.438Z,16.30
2018-07-25T01:02:47.797Z,16.10
2018-07-25T01:05:16.411Z,16.20
2018-07-25T01:07:45.122Z,16.00
2018-07-25T01:12:42.034Z,15.90
2018-07-25T01:15:11.188Z,16.00
2018-07-25T01:17:39.813Z,16.00
2018-07-25T01:25:05.458Z,15.80
2018-07-25T01:27:34.056Z,16.20
2018-07-25T01:30:02.697Z,16.30
2018-07-25T01:34:59.410Z,15.90
2018-07-25T01:37:28.052Z,15.70
2018-07-25T01:39:56.525Z,16.60
2018-07-25T01:42:25.064Z,15.90
2018-07-25T01:44:53.664Z,15.70
2018-07-25T01:47:22.103Z,15.90
2018-07-25T01:49:50.567Z,15.80
2018-07-25T01:52:19.135Z,16.00
2018-07-25T01:54:47.571Z,15.60
2018-07-25T01:59:44.239Z,15.60
2018-07-25T02:02:12.953Z,15.80
2018-07-25T02:09:38.450Z,15.80
2018-07-25T02:14:35.104Z,15.70
2018-07-25T02:17:03.771Z,16.00
2018-07-25T02:19:32.381Z,15.80
2018-07-25T02:22:00.799Z,15.90
2018-07-25T02:24:29.433Z,15.70
2018-07-25T02:26:58.017Z,15.70
2018-07-25T02:31:54.748Z,15.60
2018-07-25T02:34:23.417Z,15.60
2018-07-25T02:36:52.609Z,16.00
2018-07-25T02:41:49.378Z,15.40
2018-07-25T02:44:18.002Z,15.50
2018-07-25T02:46:46.542Z,15.40
2018-07-25T02:49:15.150Z,15.40
2018-07-25T02:51:43.766Z,15.70
2018-07-25T02:54:12.249Z,15.40
2018-07-25T02:56:43.317Z,15.30
2018-07-25T02:59:12.204Z,15.40
2018-07-25T03:04:08.911Z,15.60
2018-07-25T03:11:35.188Z,14.80
2018-07-25T03:14:03.831Z,15.30
2018-07-25T03:16:32.332Z,15.10
2018-07-25T03:19:00.763Z,15.00
2018-07-25T03:23:57.402Z,15.20
2018-07-25T03:26:25.899Z,14.80
2018-07-25T03:28:54.466Z,15.10
2018-07-25T03:31:23.100Z,14.90
2018-07-25T03:33:51.573Z,15.20
2018-07-25T03:36:20.017Z,15.10
2018-07-25T03:38:48.567Z,15.10
2018-07-25T03:41:16.991Z,15.00
2018-07-25T03:43:45.490Z,15.20
2018-07-25T03:46:14.084Z,14.90
2018-07-25T03:48:42.554Z,15.10
2018-07-25T03:51:10.903Z,14.80
2018-07-25T03:58:35.731Z,15.10
2018-07-25T04:03:33.546Z,15.00
2018-07-25T04:08:30.277Z,15.00
2018-07-25T04:10:58.825Z,15.00
2018-07-25T04:13:27.314Z,15.10
2018-07-25T04:18:23.999Z,15.20
2018-07-25T04:20:52.499Z,15.30
2018-07-25T04:23:20.948Z,15.30
2018-07-25T04:25:50.296Z,15.30
2018-07-25T04:28:18.822Z,15.30
2018-07-25T04:30:47.340Z,15.30
2018-07-25T04:33:15.794Z,15.30
2018-07-25T04:35:44.288Z,15.30
2018-07-25T04:38:12.778Z,15.40
2018-07-25T04:40:41.280Z,15.40
2018-07-25T04:43:16.201Z,15.60
2018-07-25T04:45:44.715Z,15.60
2018-07-25T04:48:13.175Z,15.70
2018-07-25T04:50:41.672Z,15.90
2018-07-25T04:53:10.143Z,15.80
2018-07-25T04:55:38.606Z,15.90
2018-07-25T04:58:07.087Z,16.10
2018-07-25T05:00:35.650Z,16.10
2018-07-25T05:03:04.151Z,16.10
2018-07-25T05:05:32.712Z,16.20
2018-07-25T05:08:01.184Z,16.40
2018-07-25T05:10:30.474Z,16.40
2018-07-25T05:12:59.499Z,16.50
2018-07-25T05:15:28.485Z,16.50
2018-07-25T05:17:57.412Z,16.50
2018-07-25T05:20:26.929Z,16.60
2018-07-25T05:22:56.207Z,16.60
2018-07-25T05:25:25.277Z,16.70
2018-07-25T05:27:54.917Z,16.90
2018-07-25T05:30:23.972Z,16.90
2018-07-25T05:32:52.434Z,17.00
2018-07-25T05:35:22.024Z,17.10
2018-07-25T05:37:50.502Z,17.20
2018-07-25T05:40:19.881Z,17.30
2018-07-25T05:42:51.437Z,17.40
2018-07-25T05:45:20.387Z,17.60
2018-07-25T05:47:48.988Z,17.70
2018-07-25T05:50:18.807Z,17.80
2018-07-25T05:52:47.507Z,17.90
2018-07-25T05:55:16.280Z,18.00
2018-07-25T05:57:44.792Z,18.10
2018-07-25T06:00:13.668Z,18.20
2018-07-25T06:02:43.400Z,18.30
2018-07-25T06:05:12.596Z,18.50
2018-07-25T06:07:41.064Z,18.50
2018-07-25T06:10:10.186Z,18.60
2018-07-25T06:12:43.353Z,18.70
2018-07-25T06:15:19.573Z,18.80
2018-07-25T06:17:48.737Z,18.90
2018-07-25T06:20:21.772Z,19.00
2018-07-25T06:22:50.594Z,19.10
2018-07-25T06:25:20.153Z,19.30
2018-07-25T06:27:49.369Z,19.70
2018-07-25T06:30:18.528Z,20.00
2018-07-25T06:32:47.152Z,20.40
2018-07-25T06:35:16.131Z,20.80
2018-07-25T06:37:45.093Z,21.10
2018-07-25T06:40:14.962Z,21.40
2018-07-25T06:42:43.655Z,21.60
2018-07-25T06:45:15.619Z,21.80
2018-07-25T06:47:44.430Z,22.10
2018-07-25T06:50:13.236Z,22.20
2018-07-25T06:52:42.324Z,22.40
2018-07-25T06:55:10.988Z,22.50
2018-07-25T06:57:40.312Z,22.80
2018-07-25T07:00:10.415Z,23.00
2018-07-25T07:02:39.817Z,23.30
2018-07-25T07:05:09.297Z,23.40
2018-07-25T07:07:39.175Z,23.50
2018-07-25T07:10:08.878Z,23.60
2018-07-25T07:12:39.438Z,23.80
2018-07-25T07:15:10.836Z,23.70
2018-07-25T07:17:41.441Z,23.70
2018-07-25T07:20:09.976Z,23.70
2018-07-25T07:22:38.506Z,23.70
2018-07-25T07:25:08.475Z,23.50
2018-07-25T07:27:36.947Z,23.50
2018-07-25T07:30:06.948Z,23.50
2018-07-25T07:32:38.133Z,23.70
2018-07-25T07:35:09.271Z,23.80
2018-07-25T07:37:37.996Z,23.80
2018-07-25T07:40:06.556Z,23.90
2018-07-25T07:42:35.259Z,24.00
2018-07-25T07:45:06.366Z,24.10
2018-07-25T07:47:35.854Z,24.20
2018-07-25T07:50:05.389Z,24.30
2018-07-25T07:52:35.816Z,24.50
2018-07-25T07:55:05.865Z,24.70
2018-07-25T07:57:35.579Z,24.70
2018-07-25T08:00:04.939Z,24.90
2018-07-25T08:02:33.469Z,25.10
2018-07-25T08:05:02.120Z,25.30
2018-07-25T08:07:30.595Z,25.50
2018-07-25T08:09:59.079Z,25.60
2018-07-25T08:12:27.620Z,25.70
2018-07-25T08:14:56.116Z,25.80
2018-07-25T08:17:24.616Z,25.80
2018-07-25T08:19:53.093Z,25.90
2018-07-25T08:22:21.640Z,25.80
2018-07-25T08:24:50.181Z,25.70
2018-07-25T08:27:18.704Z,26.00
2018-07-25T08:29:47.235Z,26.30
2018-07-25T08:32:16.705Z,26.50
2018-07-25T08:34:47.365Z,26.70
2018-07-25T08:37:15.883Z,26.40
2018-07-25T08:39:44.372Z,26.70
2018-07-25T08:42:12.907Z,27.00
2018-07-25T08:44:48.183Z,27.30
2018-07-25T08:47:18.389Z,27.10
2018-07-25T08:49:48.225Z,27.10
2018-07-25T08:52:17.289Z,27.30
2018-07-25T08:54:46.405Z,27.30
2018-07-25T08:57:15.178Z,27.50
2018-07-25T08:59:45.065Z,27.60
2018-07-25T09:02:13.501Z,27.90
2018-07-25T09:04:42.504Z,28.30
2018-07-25T09:07:11.103Z,28.80
2018-07-25T09:09:40.384Z,28.80
2018-07-25T09:12:09.256Z,28.10
2018-07-25T09:14:41.493Z,27.90
2018-07-25T09:17:10.297Z,28.10
2018-07-25T09:19:39.230Z,28.50
2018-07-25T09:22:08.154Z,28.60
2018-07-25T09:24:39.901Z,28.80
2018-07-25T09:27:08.973Z,28.50
2018-07-25T09:29:39.681Z,28.40
2018-07-25T09:32:08.299Z,28.40
2018-07-25T09:34:38.907Z,28.70
2018-07-25T09:37:08.872Z,29.00
2018-07-25T09:39:38.573Z,28.70
2018-07-25T09:42:07.535Z,29.10
2018-07-25T09:44:36.123Z,28.30
2018-07-25T09:47:05.063Z,28.20
2018-07-25T09:49:34.481Z,28.10
2018-07-25T09:52:03.729Z,28.40
2018-07-25T09:54:32.663Z,28.60
2018-07-25T09:57:02.367Z,29.30
2018-07-25T09:59:32.065Z,30.00
2018-07-25T10:02:01.149Z,30.40
2018-07-25T10:04:31.005Z,29.90
2018-07-25T10:07:01.852Z,30.70
2018-07-25T10:09:33.051Z,30.90
2018-07-25T10:12:01.529Z,31.10
2018-07-25T10:14:30.561Z,30.60
2018-07-25T10:16:59.605Z,31.10
2018-07-25T10:19:28.028Z,31.60
2018-07-25T10:21:58.807Z,31.90
2018-07-25T10:24:28.347Z,32.20
2018-07-25T10:26:59.072Z,31.50
2018-07-25T10:29:29.870Z,31.70
2018-07-25T10:32:04.304Z,32.20
2018-07-25T10:34:33.065Z,33.00
2018-07-25T10:37:02.085Z,33.40
2018-07-25T10:39:31.211Z,33.40
2018-07-25T10:41:59.679Z,31.90
2018-07-25T10:44:28.404Z,31.90
2018-07-25T10:46:57.368Z,32.10
2018-07-25T10:49:27.148Z,32.80
2018-07-25T10:51:56.651Z,33.20
2018-07-25T10:54:25.786Z,33.00
2018-07-25T10:56:54.537Z,33.60
2018-07-25T10:59:24.556Z,32.80
2018-07-25T11:01:55.476Z,33.40
2018-07-25T11:04:24.062Z,33.30
2018-07-25T11:06:52.555Z,33.90
2018-07-25T11:09:21.371Z,34.10
2018-07-25T11:11:51.700Z,33.40
2018-07-25T11:14:22.695Z,32.60
2018-07-25T11:16:51.491Z,32.80
2018-07-25T11:19:20.049Z,33.10
2018-07-25T11:21:48.696Z,33.20
2018-07-25T11:24:17.859Z,33.60
2018-07-25T11:26:47.291Z,33.90
2018-07-25T11:29:16.436Z,34.30
2018-07-25T11:31:50.743Z,34.30
2018-07-25T11:34:21.823Z,33.40
2018-07-25T11:36:50.352Z,34.00
2018-07-25T11:39:19.592Z,34.00
2018-07-25T11:41:48.212Z,34.50
2018-07-25T11:44:16.745Z,34.30
2018-07-25T11:46:45.257Z,34.00
2018-07-25T11:49:16.965Z,34.00
2018-07-25T11:51:47.997Z,34.40
2018-07-25T11:54:19.140Z,34.20
2018-07-25T11:56:47.922Z,34.30
2018-07-25T11:59:17.752Z,33.00
2018-07-25T12:01:47.198Z,33.60
2018-07-25T12:04:15.830Z,33.10
2018-07-25T12:06:44.343Z,33.10
2018-07-25T12:09:12.913Z,31.50
2018-07-25T12:11:47.048Z,29.50
2018-07-25T12:14:19.482Z,28.30
2018-07-25T12:16:48.030Z,26.80
2018-07-25T12:21:45.190Z,24.50
2018-07-25T12:24:14.330Z,23.50
2018-07-25T12:26:43.807Z,22.40
2018-07-25T12:31:43.937Z,21.20
2018-07-25T12:34:12.674Z,21.10
2018-07-25T12:36:41.173Z,21.10
2018-07-25T12:39:10.219Z,21.10
2018-07-25T12:41:39.247Z,21.30
2018-07-25T12:44:12.996Z,21.30
2018-07-25T12:46:41.518Z,22.20
2018-07-25T12:49:10.101Z,22.50
2018-07-25T12:51:40.350Z,23.10
2018-07-25T12:54:10.835Z,23.20
2018-07-25T12:56:41.131Z,24.00
2018-07-25T12:59:12.161Z,24.40
2018-07-25T13:01:42.746Z,24.50
2018-07-25T13:04:11.760Z,24.60
2018-07-25T13:06:42.610Z,24.60
2018-07-25T13:09:12.540Z,24.70
2018-07-25T13:11:41.262Z,24.80
2018-07-25T13:14:10.007Z,24.90
2018-07-25T13:16:38.635Z,25.30
2018-07-25T13:19:07.152Z,25.60
2018-07-25T13:21:35.808Z,25.80
2018-07-25T13:24:04.282Z,26.00
2018-07-25T13:26:32.704Z,26.10
2018-07-25T13:29:01.539Z,26.10
2018-07-25T13:31:30.023Z,25.80
2018-07-25T13:33:59.684Z,25.50
2018-07-25T13:36:30.183Z,25.30
2018-07-25T13:38:59.797Z,25.30
2018-07-25T13:41:28.421Z,25.30
2018-07-25T13:43:57.036Z,25.30
2018-07-25T13:46:25.677Z,25.70
2018-07-25T13:48:54.220Z,26.00
2018-07-25T13:51:22.922Z,26.30
2018-07-25T13:53:51.467Z,26.30
2018-07-25T13:56:20.004Z,26.40
2018-07-25T13:58:48.662Z,26.40
2018-07-25T14:01:17.127Z,26.40
2018-07-25T14:03:45.592Z,26.50
2018-07-25T14:06:14.137Z,26.50
2018-07-25T14:08:42.682Z,26.50
2018-07-25T14:11:14.851Z,26.60
2018-07-25T14:13:56.913Z,26.70
2018-07-25T14:16:28.418Z,26.70
2018-07-25T14:18:57.194Z,26.10
2018-07-25T14:21:25.870Z,26.10
2018-07-25T14:23:54.754Z,25.50
2018-07-25T14:28:59.548Z,25.20
2018-07-25T14:31:28.337Z,25.10
2018-07-25T14:33:57.107Z,25.40
2018-07-25T14:36:25.808Z,25.00
2018-07-25T14:38:58.289Z,24.80
2018-07-25T14:41:26.896Z,25.50
2018-07-25T14:44:00.192Z,24.70
2018-07-25T15:02:08.774Z,24.00
2018-07-25T15:04:37.519Z,24.10
2018-07-25T15:16:35.842Z,24.60
2018-07-25T15:19:04.526Z,24.80
2018-07-25T15:21:33.132Z,24.90
2018-07-25T15:24:05.032Z,25.00
2018-07-25T15:26:33.700Z,25.00
2018-07-25T15:29:02.833Z,25.00
2018-07-25T15:31:31.402Z,25.00
2018-07-25T15:34:01.073Z,25.00
2018-07-25T15:36:43.191Z,24.90
2018-07-25T15:39:17.360Z,24.80
2018-07-25T15:41:46.837Z,24.70
2018-07-25T15:44:16.015Z,24.70
2018-07-25T15:46:44.938Z,24.70
2018-07-25T15:49:13.477Z,24.70
2018-07-25T15:51:42.146Z,24.60
2018-07-25T15:54:11.427Z,24.70
2018-07-25T15:56:40.155Z,24.70
2018-07-25T15:59:08.913Z,24.90
2018-07-25T16:01:38.463Z,24.90
2018-07-25T16:04:07.285Z,25.20
2018-07-25T16:06:35.907Z,25.20
2018-07-25T16:09:08.617Z,25.30
2018-07-25T16:19:02.484Z,25.10
2018-07-25T16:21:31.230Z,25.30
2018-07-25T16:23:59.869Z,25.20
2018-07-25T16:28:56.607Z,25.30
2018-07-25T16:36:21.566Z,25.20
2018-07-25T16:38:50.240Z,25.30
2018-07-25T16:43:47.025Z,25.40
2018-07-25T16:46:16.194Z,25.40
2018-07-25T16:48:44.840Z,25.50
2018-07-25T16:51:13.382Z,25.50
2018-07-25T16:53:42.012Z,25.60
2018-07-25T17:01:07.462Z,25.90
2018-07-25T17:06:05.261Z,26.00
2018-07-25T17:08:33.821Z,26.10
2018-07-25T17:13:30.547Z,25.80
2018-07-25T17:15:59.247Z,25.60
2018-07-25T17:18:28.397Z,25.60
2018-07-25T17:20:56.903Z,25.50
2018-07-25T17:23:25.595Z,25.40
2018-07-25T17:25:54.525Z,25.10
2018-07-25T17:30:51.636Z,24.60
2018-07-25T17:33:20.249Z,24.60
2018-07-25T17:35:48.841Z,24.20
2018-07-25T17:38:17.367Z,23.90
2018-07-25T17:40:45.942Z,23.80
2018-07-25T17:43:15.218Z,23.30
2018-07-25T17:45:43.888Z,23.10
2018-07-25T17:50:40.895Z,22.80
2018-07-25T17:55:37.868Z,22.80
2018-07-25T17:58:06.914Z,22.70
2018-07-25T18:00:35.495Z,22.80
2018-07-25T18:03:04.460Z,22.70
2018-07-25T18:05:33.072Z,22.70
2018-07-25T18:08:02.474Z,22.60
2018-07-25T18:10:31.038Z,22.60
2018-07-25T18:13:05.062Z,22.60
2018-07-25T18:15:33.686Z,22.60
2018-07-25T18:18:02.240Z,22.80
2018-07-25T18:20:30.809Z,22.60
2018-07-25T18:22:59.692Z,22.10
2018-07-25T18:25:29.260Z,22.60
2018-07-25T18:30:26.138Z,22.40
2018-07-25T18:32:54.811Z,22.60
2018-07-25T18:35:23.407Z,21.80
2018-07-25T18:37:52.097Z,22.40
2018-07-25T18:42:49.100Z,21.80
2018-07-25T18:45:17.673Z,21.90
2018-07-25T18:47:47.258Z,22.10
2018-07-25T18:50:16.988Z,21.80
2018-07-25T18:52:45.617Z,21.50
2018-07-25T18:55:15.089Z,21.60
2018-07-25T18:57:44.162Z,21.60
2018-07-25T19:00:12.820Z,21.30
2018-07-25T19:02:44.378Z,21.60
2018-07-25T19:05:14.798Z,21.20
2018-07-25T19:10:11.721Z,21.20
2018-07-25T19:12:40.300Z,21.30
2018-07-25T19:15:43.583Z,21.20
2018-07-25T19:20:40.930Z,21.10
2018-07-25T19:23:11.260Z,21.50
2018-07-25T19:25:40.934Z,21.00
2018-07-25T19:30:39.502Z,20.90
2018-07-25T19:33:08.228Z,20.80
2018-07-25T19:35:36.926Z,21.00
2018-07-25T19:38:05.544Z,20.80
2018-07-25T19:40:34.680Z,21.10
2018-07-25T19:43:04.394Z,20.80
2018-07-25T19:45:33.170Z,20.70
2018-07-25T19:48:02.347Z,20.60
2018-07-25T19:50:33.624Z,21.10
2018-07-25T19:53:02.616Z,20.70
2018-07-25T19:57:59.485Z,20.60
2018-07-25T20:02:57.943Z,20.80
2018-07-25T20:07:54.868Z,20.80
2018-07-25T20:12:52.575Z,20.40
2018-07-25T20:15:26.543Z,20.40
2018-07-25T20:22:53.647Z,20.10
2018-07-25T20:25:22.171Z,20.30
2018-07-25T20:30:20.913Z,20.10
2018-07-25T20:32:49.611Z,19.90
2018-07-25T20:35:18.388Z,19.60
2018-07-25T20:37:46.909Z,20.20
2018-07-25T20:40:15.479Z,19.70
2018-07-25T20:42:44.053Z,19.50
2018-07-25T20:45:12.586Z,19.60
2018-07-25T20:47:41.694Z,19.20
2018-07-25T20:50:11.078Z,20.10
2018-07-25T21:00:05.551Z,19.20
2018-07-25T21:02:34.217Z,19.40
2018-07-25T21:05:02.742Z,19.10
2018-07-25T21:07:31.491Z,19.10
2018-07-25T21:09:59.996Z,19.20
2018-07-25T21:14:56.683Z,19.30
2018-07-25T21:17:25.203Z,19.20
2018-07-25T21:19:53.747Z,19.40
2018-07-25T21:22:22.738Z,19.40
2018-07-25T21:24:51.271Z,19.50
2018-07-25T21:27:19.815Z,19.30
2018-07-25T21:29:48.356Z,19.00
2018-07-25T21:32:17.244Z,19.00
2018-07-25T21:34:45.854Z,19.20
2018-07-25T21:37:14.316Z,18.80
2018-07-25T21:42:11.293Z,18.80
2018-07-25T21:44:40.420Z,19.00
2018-07-25T21:47:08.931Z,18.60
2018-07-25T21:52:05.663Z,18.80
2018-07-25T21:54:34.090Z,18.70
2018-07-25T21:59:58.574Z,19.10
2018-07-25T22:02:27.071Z,18.80
2018-07-25T22:04:55.511Z,18.70
2018-07-25T22:07:24.009Z,18.60
2018-07-25T22:09:52.460Z,18.50
2018-07-25T22:17:17.202Z,18.50
2018-07-25T22:19:45.630Z,18.70
2018-07-25T22:22:14.174Z,18.90
2018-07-25T22:24:42.608Z,18.60
2018-07-25T22:27:11.157Z,18.50
2018-07-25T22:34:36.081Z,18.70
2018-07-25T22:42:00.932Z,18.20
2018-07-25T22:49:26.729Z,18.20
2018-07-25T22:51:55.235Z,18.10
2018-07-25T22:56:51.862Z,18.20
2018-07-25T22:59:20.314Z,18.30
2018-07-25T23:01:48.851Z,18.80
2018-07-25T23:04:17.298Z,17.60
2018-07-25T23:06:45.723Z,18.30
2018-07-25T23:09:14.202Z,18.00
2018-07-25T23:16:39.006Z,18.00
2018-07-25T23:21:35.693Z,18.30
2018-07-25T23:29:00.564Z,18.20
2018-07-25T23:31:29.026Z,18.10
2018-07-25T23:33:57.471Z,17.90
2018-07-25T23:41:22.205Z,18.80
2018-07-25T23:43:50.761Z,18.20
2018-07-25T23:46:19.201Z,18.10
2018-07-25T23:48:48.423Z,18.30
2018-07-25T23:51:16.911Z,18.10
2018-07-25T23:56:13.463Z,18.20
2018-07-25T23:58:41.967Z,18.40
